sensor_id;sensor_type;location;lat;lon;timestamp;pressure;altitude;pressure_sealevel;temperature;humidity
58245;BME280;44550;43.864;25.986;2024-03-08T00:02:05;101557.84;;;4.32;100.00
58245;BME280;44550;43.864;25.986;2024-03-08T00:06:05;101569.38;;;4.39;100.00
58245;BME280;44550;43.864;25.986;2024-03-08T00:10:06;101554.56;;;4.36;100.00
58245;BME280;44550;43.864;25.986;2024-03-08T00:14:08;101561.47;;;4.36;100.00
58245;BME280;44550;43.864;25.986;2024-03-08T00:18:11;101553.97;;;4.42;100.00
58245;BME280;44550;43.864;25.986;2024-03-08T00:22:11;101549.25;;;4.33;100.00
58245;BME280;44550;43.864;25.986;2024-03-08T00:26:11;101537.59;;;4.43;100.00
58245;BME280;44550;43.864;25.986;2024-03-08T00:30:11;101518.75;;;4.45;100.00
58245;BME280;44550;43.864;25.986;2024-03-08T00:34:14;101518.69;;;4.44;100.00
58245;BME280;44550;43.864;25.986;2024-03-08T00:38:13;101495.56;;;4.29;100.00
58245;BME280;44550;43.864;25.986;2024-03-08T00:42:13;101525.75;;;4.48;100.00
58245;BME280;44550;43.864;25.986;2024-03-08T00:46:13;101520.34;;;4.43;100.00
58245;BME280;44550;43.864;25.986;2024-03-08T00:50:16;101532.56;;;4.46;100.00
58245;BME280;44550;43.864;25.986;2024-03-08T00:54:17;101519.28;;;4.38;100.00
58245;BME280;44550;43.864;25.986;2024-03-08T00:58:17;101516.09;;;4.24;100.00
58245;BME280;44550;43.864;25.986;2024-03-08T01:02:17;101547.09;;;4.42;100.00
58245;BME280;44550;43.864;25.986;2024-03-08T01:06:19;101526.09;;;4.36;100.00
58245;BME280;44550;43.864;25.986;2024-03-08T01:10:19;101490.78;;;3.99;100.00
58245;BME280;44550;43.864;25.986;2024-03-08T01:14:24;101536.66;;;4.41;100.00
58245;BME280;44550;43.864;25.986;2024-03-08T01:18:26;101542.66;;;4.40;100.00
58245;BME280;44550;43.864;25.986;2024-03-08T01:22:28;101521.53;;;4.31;100.00
58245;BME280;44550;43.864;25.986;2024-03-08T01:26:28;101537.53;;;4.22;100.00
58245;BME280;44550;43.864;25.986;2024-03-08T01:30:28;101544.31;;;4.38;100.00
58245;BME280;44550;43.864;25.986;2024-03-08T01:34:29;101516.16;;;4.26;100.00
58245;BME280;44550;43.864;25.986;2024-03-08T01:38:32;101519.22;;;4.17;100.00
58245;BME280;44550;43.864;25.986;2024-03-08T01:42:33;101548.47;;;4.34;100.00
58245;BME280;44550;43.864;25.986;2024-03-08T01:46:35;101543.56;;;4.40;100.00
58245;BME280;44550;43.864;25.986;2024-03-08T01:50:34;101546.25;;;4.43;100.00
58245;BME280;44550;43.864;25.986;2024-03-08T01:54:36;101545.88;;;4.54;100.00
58245;BME280;44550;43.864;25.986;2024-03-08T01:58:38;101537.41;;;4.38;100.00
58245;BME280;44550;43.864;25.986;2024-03-08T02:02:40;101551.31;;;4.40;100.00
58245;BME280;44550;43.864;25.986;2024-03-08T02:06:42;101555.81;;;4.44;100.00
58245;BME280;44550;43.864;25.986;2024-03-08T02:10:45;101544.56;;;4.44;100.00
58245;BME280;44550;43.864;25.986;2024-03-08T02:14:44;101521.81;;;4.17;100.00
58245;BME280;44550;43.864;25.986;2024-03-08T02:18:44;101553.34;;;4.28;100.00
58245;BME280;44550;43.864;25.986;2024-03-08T02:22:46;101563.06;;;4.34;100.00
58245;BME280;44550;43.864;25.986;2024-03-08T02:26:48;101561.56;;;4.19;100.00
58245;BME280;44550;43.864;25.986;2024-03-08T02:30:48;101511.59;;;4.01;100.00
58245;BME280;44550;43.864;25.986;2024-03-08T02:34:48;101567.91;;;4.26;100.00
58245;BME280;44550;43.864;25.986;2024-03-08T02:38:50;101563.44;;;4.41;100.00
58245;BME280;44550;43.864;25.986;2024-03-08T02:42:50;101562.56;;;4.41;100.00
58245;BME280;44550;43.864;25.986;2024-03-08T02:46:50;101566.44;;;4.51;100.00
58245;BME280;44550;43.864;25.986;2024-03-08T02:50:52;101567.25;;;4.50;100.00
58245;BME280;44550;43.864;25.986;2024-03-08T02:54:54;101556.97;;;4.32;100.00
58245;BME280;44550;43.864;25.986;2024-03-08T02:58:54;101569.78;;;4.29;100.00
58245;BME280;44550;43.864;25.986;2024-03-08T03:02:54;101564.03;;;4.36;100.00
58245;BME280;44550;43.864;25.986;2024-03-08T03:06:54;101545.09;;;4.17;100.00
58245;BME280;44550;43.864;25.986;2024-03-08T03:10:57;101554.09;;;4.26;100.00
58245;BME280;44550;43.864;25.986;2024-03-08T03:14:57;101539.31;;;4.23;100.00
58245;BME280;44550;43.864;25.986;2024-03-08T03:18:57;101571.25;;;4.43;100.00
58245;BME280;44550;43.864;25.986;2024-03-08T03:22:59;101554.91;;;4.24;100.00
58245;BME280;44550;43.864;25.986;2024-03-08T03:27:03;101567.59;;;4.38;100.00
58245;BME280;44550;43.864;25.986;2024-03-08T03:31:08;101570.06;;;4.35;100.00
58245;BME280;44550;43.864;25.986;2024-03-08T03:35:11;101519.69;;;4.09;100.00
58245;BME280;44550;43.864;25.986;2024-03-08T03:39:12;101541.00;;;4.22;100.00
58245;BME280;44550;43.864;25.986;2024-03-08T03:43:16;101567.47;;;4.35;100.00
58245;BME280;44550;43.864;25.986;2024-03-08T03:47:16;101570.94;;;4.35;100.00
58245;BME280;44550;43.864;25.986;2024-03-08T03:51:16;101541.41;;;4.12;100.00
58245;BME280;44550;43.864;25.986;2024-03-08T03:55:16;101569.47;;;4.22;100.00
58245;BME280;44550;43.864;25.986;2024-03-08T03:59:19;101577.34;;;4.24;100.00
58245;BME280;44550;43.864;25.986;2024-03-08T04:03:18;101544.78;;;3.92;100.00
58245;BME280;44550;43.864;25.986;2024-03-08T04:07:18;101591.81;;;4.20;100.00
58245;BME280;44550;43.864;25.986;2024-03-08T04:11:19;101591.06;;;4.23;100.00
58245;BME280;44550;43.864;25.986;2024-03-08T04:15:21;101583.09;;;4.18;100.00
58245;BME280;44550;43.864;25.986;2024-03-08T04:19:21;101601.28;;;4.20;100.00
58245;BME280;44550;43.864;25.986;2024-03-08T04:23:24;101584.91;;;4.02;100.00
58245;BME280;44550;43.864;25.986;2024-03-08T04:27:25;101599.38;;;4.16;100.00
58245;BME280;44550;43.864;25.986;2024-03-08T04:31:27;101606.16;;;4.14;100.00
58245;BME280;44550;43.864;25.986;2024-03-08T04:35:28;101589.22;;;4.01;100.00
58245;BME280;44550;43.864;25.986;2024-03-08T04:39:28;101585.59;;;3.97;100.00
58245;BME280;44550;43.864;25.986;2024-03-08T04:43:29;101594.97;;;3.95;100.00
58245;BME280;44550;43.864;25.986;2024-03-08T04:47:32;101587.50;;;3.84;100.00
58245;BME280;44550;43.864;25.986;2024-03-08T04:51:34;101590.75;;;3.80;100.00
58245;BME280;44550;43.864;25.986;2024-03-08T04:55:34;101517.25;;;3.57;100.00
58245;BME280;44550;43.864;25.986;2024-03-08T04:59:34;101592.47;;;3.79;100.00
58245;BME280;44550;43.864;25.986;2024-03-08T05:03:36;101610.63;;;3.81;100.00
58245;BME280;44550;43.864;25.986;2024-03-08T05:07:37;101609.75;;;3.80;100.00
58245;BME280;44550;43.864;25.986;2024-03-08T05:11:37;101611.47;;;3.80;100.00
58245;BME280;44550;43.864;25.986;2024-03-08T05:15:41;101617.50;;;3.80;100.00
58245;BME280;44550;43.864;25.986;2024-03-08T05:19:44;101621.91;;;3.81;100.00
58245;BME280;44550;43.864;25.986;2024-03-08T05:23:52;101597.13;;;3.68;100.00
58245;BME280;44550;43.864;25.986;2024-03-08T05:27:55;101627.22;;;3.84;100.00
58245;BME280;44550;43.864;25.986;2024-03-08T05:31:55;101632.09;;;3.78;100.00
58245;BME280;44550;43.864;25.986;2024-03-08T05:35:58;101636.00;;;3.88;100.00
58245;BME280;44550;43.864;25.986;2024-03-08T05:40:00;101638.97;;;3.78;100.00
58245;BME280;44550;43.864;25.986;2024-03-08T05:44:01;101621.34;;;3.70;100.00
58245;BME280;44550;43.864;25.986;2024-03-08T05:48:04;101639.63;;;3.91;100.00
58245;BME280;44550;43.864;25.986;2024-03-08T05:52:07;101654.09;;;4.06;100.00
58245;BME280;44550;43.864;25.986;2024-03-08T05:56:07;101622.78;;;3.82;100.00
58245;BME280;44550;43.864;25.986;2024-03-08T06:00:07;101667.00;;;4.04;100.00
58245;BME280;44550;43.864;25.986;2024-03-08T06:04:08;101670.06;;;3.97;100.00
58245;BME280;44550;43.864;25.986;2024-03-08T06:08:12;101655.94;;;3.90;100.00
58245;BME280;44550;43.864;25.986;2024-03-08T06:12:15;101663.56;;;3.87;100.00
58245;BME280;44550;43.864;25.986;2024-03-08T06:16:17;101670.84;;;3.94;100.00
58245;BME280;44550;43.864;25.986;2024-03-08T06:20:16;101669.56;;;4.04;100.00
58245;BME280;44550;43.864;25.986;2024-03-08T06:24:19;101678.22;;;4.05;100.00
58245;BME280;44550;43.864;25.986;2024-03-08T06:28:28;101682.00;;;4.11;100.00
58245;BME280;44550;43.864;25.986;2024-03-08T06:32:31;101676.00;;;4.12;100.00
58245;BME280;44550;43.864;25.986;2024-03-08T06:36:33;101684.19;;;4.04;100.00
58245;BME280;44550;43.864;25.986;2024-03-08T06:40:46;101671.72;;;3.95;100.00
58245;BME280;44550;43.864;25.986;2024-03-08T06:44:50;101660.84;;;3.84;100.00
58245;BME280;44550;43.864;25.986;2024-03-08T06:48:52;101660.19;;;3.88;100.00
58245;BME280;44550;43.864;25.986;2024-03-08T06:52:52;101681.44;;;4.00;100.00
58245;BME280;44550;43.864;25.986;2024-03-08T06:56:55;101689.22;;;4.00;100.00
58245;BME280;44550;43.864;25.986;2024-03-08T07:00:55;101689.38;;;4.04;100.00
58245;BME280;44550;43.864;25.986;2024-03-08T07:04:57;101697.72;;;4.16;100.00
58245;BME280;44550;43.864;25.986;2024-03-08T07:08:58;101706.69;;;4.22;100.00
58245;BME280;44550;43.864;25.986;2024-03-08T07:13:00;101701.94;;;4.14;100.00
58245;BME280;44550;43.864;25.986;2024-03-08T07:17:01;101702.47;;;4.24;100.00
58245;BME280;44550;43.864;25.986;2024-03-08T07:21:03;101626.47;;;3.87;100.00
58245;BME280;44550;43.864;25.986;2024-03-08T07:25:06;101712.22;;;4.30;100.00
58245;BME280;44550;43.864;25.986;2024-03-08T07:29:18;101691.16;;;4.22;100.00
58245;BME280;44550;43.864;25.986;2024-03-08T07:33:18;101713.19;;;4.32;100.00
58245;BME280;44550;43.864;25.986;2024-03-08T07:37:23;101695.75;;;4.28;100.00
58245;BME280;44550;43.864;25.986;2024-03-08T07:41:25;101716.06;;;4.38;100.00
58245;BME280;44550;43.864;25.986;2024-03-08T07:45:28;101677.31;;;4.22;100.00
58245;BME280;44550;43.864;25.986;2024-03-08T07:49:28;101708.13;;;4.53;100.00
58245;BME280;44550;43.864;25.986;2024-03-08T07:53:27;101716.69;;;4.70;100.00
58245;BME280;44550;43.864;25.986;2024-03-08T07:57:27;101717.44;;;4.67;100.00
58245;BME280;44550;43.864;25.986;2024-03-08T08:01:29;101714.78;;;4.66;100.00
58245;BME280;44550;43.864;25.986;2024-03-08T08:05:33;101728.88;;;4.72;100.00
58245;BME280;44550;43.864;25.986;2024-03-08T08:09:36;101702.00;;;4.51;100.00
58245;BME280;44550;43.864;25.986;2024-03-08T08:13:36;101727.03;;;4.70;100.00
58245;BME280;44550;43.864;25.986;2024-03-08T08:17:38;101692.31;;;4.47;100.00
58245;BME280;44550;43.864;25.986;2024-03-08T08:21:38;101721.34;;;4.77;100.00
58245;BME280;44550;43.864;25.986;2024-03-08T08:25:38;101726.53;;;4.77;100.00
58245;BME280;44550;43.864;25.986;2024-03-08T08:29:38;101730.06;;;4.79;100.00
58245;BME280;44550;43.864;25.986;2024-03-08T08:33:40;101727.97;;;5.09;100.00
58245;BME280;44550;43.864;25.986;2024-03-08T08:37:41;101661.00;;;4.60;100.00
58245;BME280;44550;43.864;25.986;2024-03-08T08:41:42;101727.63;;;5.02;100.00
58245;BME280;44550;43.864;25.986;2024-03-08T08:45:42;101727.66;;;5.21;100.00
58245;BME280;44550;43.864;25.986;2024-03-08T08:49:46;101690.50;;;4.83;100.00
58245;BME280;44550;43.864;25.986;2024-03-08T08:53:48;101727.38;;;5.15;100.00
58245;BME280;44550;43.864;25.986;2024-03-08T08:57:48;101734.41;;;5.17;100.00
58245;BME280;44550;43.864;25.986;2024-03-08T09:01:50;101746.63;;;5.20;100.00
58245;BME280;44550;43.864;25.986;2024-03-08T09:05:53;101737.03;;;5.00;100.00
58245;BME280;44550;43.864;25.986;2024-03-08T09:09:54;101715.22;;;4.94;100.00
58245;BME280;44550;43.864;25.986;2024-03-08T09:13:58;101748.16;;;5.16;100.00
58245;BME280;44550;43.864;25.986;2024-03-08T09:17:59;101727.22;;;5.12;100.00
58245;BME280;44550;43.864;25.986;2024-03-08T09:22:04;101691.53;;;5.06;100.00
58245;BME280;44550;43.864;25.986;2024-03-08T09:26:04;101670.75;;;5.05;100.00
58245;BME280;44550;43.864;25.986;2024-03-08T09:30:15;101681.31;;;5.09;100.00
58245;BME280;44550;43.864;25.986;2024-03-08T09:34:15;101736.78;;;5.32;100.00
58245;BME280;44550;43.864;25.986;2024-03-08T09:38:24;101716.16;;;5.35;100.00
58245;BME280;44550;43.864;25.986;2024-03-08T09:42:26;101749.38;;;5.63;100.00
58245;BME280;44550;43.864;25.986;2024-03-08T09:46:26;101740.59;;;5.60;100.00
58245;BME280;44550;43.864;25.986;2024-03-08T09:50:27;101664.13;;;5.11;100.00
58245;BME280;44550;43.864;25.986;2024-03-08T09:54:29;101754.16;;;5.74;100.00
58245;BME280;44550;43.864;25.986;2024-03-08T09:58:29;101722.44;;;5.40;100.00
58245;BME280;44550;43.864;25.986;2024-03-08T10:02:54;101740.78;;;5.64;100.00
58245;BME280;44550;43.864;25.986;2024-03-08T10:07:01;101733.19;;;5.69;100.00
58245;BME280;44550;43.864;25.986;2024-03-08T10:11:03;101748.84;;;5.92;100.00
58245;BME280;44550;43.864;25.986;2024-03-08T10:15:05;101742.38;;;5.82;100.00
58245;BME280;44550;43.864;25.986;2024-03-08T10:19:05;101736.03;;;5.75;100.00
58245;BME280;44550;43.864;25.986;2024-03-08T10:23:07;101744.78;;;5.77;100.00
58245;BME280;44550;43.864;25.986;2024-03-08T10:27:23;101742.09;;;5.76;100.00
58245;BME280;44550;43.864;25.986;2024-03-08T10:31:37;101749.72;;;5.71;100.00
58245;BME280;44550;43.864;25.986;2024-03-08T10:35:37;101702.22;;;5.53;100.00
58245;BME280;44550;43.864;25.986;2024-03-08T10:39:58;101737.84;;;5.76;100.00
58245;BME280;44550;43.864;25.986;2024-03-08T10:44:20;101737.03;;;5.79;100.00
58245;BME280;44550;43.864;25.986;2024-03-08T10:48:29;101732.94;;;5.84;100.00
58245;BME280;44550;43.864;25.986;2024-03-08T10:52:51;101733.66;;;5.80;100.00
58245;BME280;44550;43.864;25.986;2024-03-08T10:56:53;101728.78;;;5.87;100.00
58245;BME280;44550;43.864;25.986;2024-03-08T11:00:55;101718.44;;;5.89;100.00
58245;BME280;44550;43.864;25.986;2024-03-08T11:05:02;101665.09;;;5.54;100.00
58245;BME280;44550;43.864;25.986;2024-03-08T11:09:08;101723.03;;;5.95;100.00
58245;BME280;44550;43.864;25.986;2024-03-08T11:13:32;101714.69;;;5.82;100.00
58245;BME280;44550;43.864;25.986;2024-03-08T11:17:47;101723.22;;;5.99;100.00
58245;BME280;44550;43.864;25.986;2024-03-08T11:22:00;101718.50;;;6.10;100.00
58245;BME280;44550;43.864;25.986;2024-03-08T11:26:00;101713.88;;;6.25;100.00
58245;BME280;44550;43.864;25.986;2024-03-08T11:30:06;101647.84;;;6.19;100.00
58245;BME280;44550;43.864;25.986;2024-03-08T11:34:17;101675.19;;;6.54;100.00
58245;BME280;44550;43.864;25.986;2024-03-08T11:38:19;101697.56;;;6.73;100.00
58245;BME280;44550;43.864;25.986;2024-03-08T11:42:20;101712.44;;;6.77;100.00
58245;BME280;44550;43.864;25.986;2024-03-08T11:46:20;101679.50;;;6.53;100.00
58245;BME280;44550;43.864;25.986;2024-03-08T11:50:24;101641.59;;;6.36;100.00
58245;BME280;44550;43.864;25.986;2024-03-08T11:54:24;101710.09;;;6.61;100.00
58245;BME280;44550;43.864;25.986;2024-03-08T11:58:25;101699.97;;;6.68;100.00
58245;BME280;44550;43.864;25.986;2024-03-08T12:02:25;101691.94;;;6.85;100.00
58245;BME280;44550;43.864;25.986;2024-03-08T12:06:53;101698.13;;;6.88;100.00
58245;BME280;44550;43.864;25.986;2024-03-08T12:10:53;101647.28;;;6.26;100.00
58245;BME280;44550;43.864;25.986;2024-03-08T12:14:57;101694.59;;;6.41;100.00
58245;BME280;44550;43.864;25.986;2024-03-08T12:18:57;101681.16;;;6.51;100.00
58245;BME280;44550;43.864;25.986;2024-03-08T12:22:59;101688.41;;;6.60;100.00
58245;BME280;44550;43.864;25.986;2024-03-08T12:27:00;101687.81;;;6.67;100.00
58245;BME280;44550;43.864;25.986;2024-03-08T12:31:03;101692.13;;;6.67;100.00
58245;BME280;44550;43.864;25.986;2024-03-08T12:35:15;101676.44;;;6.64;100.00
58245;BME280;44550;43.864;25.986;2024-03-08T12:39:21;101621.88;;;6.19;100.00
58245;BME280;44550;43.864;25.986;2024-03-08T12:43:27;101679.75;;;6.59;100.00
58245;BME280;44550;43.864;25.986;2024-03-08T12:47:30;101664.66;;;6.73;100.00
58245;BME280;44550;43.864;25.986;2024-03-08T12:51:30;101676.44;;;6.88;100.00
58245;BME280;44550;43.864;25.986;2024-03-08T12:55:33;101670.78;;;7.22;100.00
58245;BME280;44550;43.864;25.986;2024-03-08T12:59:34;101657.09;;;7.53;100.00
58245;BME280;44550;43.864;25.986;2024-03-08T13:03:33;101661.53;;;7.83;100.00
58245;BME280;44550;43.864;25.986;2024-03-08T13:07:34;101640.81;;;7.86;100.00
58245;BME280;44550;43.864;25.986;2024-03-08T13:11:37;101666.00;;;8.14;100.00
58245;BME280;44550;43.864;25.986;2024-03-08T13:15:41;101652.75;;;8.06;100.00
58245;BME280;44550;43.864;25.986;2024-03-08T13:19:43;101649.63;;;7.89;100.00
58245;BME280;44550;43.864;25.986;2024-03-08T13:23:45;101600.78;;;7.55;100.00
58245;BME280;44550;43.864;25.986;2024-03-08T13:27:53;101651.06;;;7.81;100.00
58245;BME280;44550;43.864;25.986;2024-03-08T13:31:58;101649.63;;;7.64;100.00
58245;BME280;44550;43.864;25.986;2024-03-08T13:35:59;101666.31;;;7.69;100.00
58245;BME280;44550;43.864;25.986;2024-03-08T13:40:10;101636.13;;;7.48;100.00
58245;BME280;44550;43.864;25.986;2024-03-08T13:44:13;101652.22;;;7.64;100.00
58245;BME280;44550;43.864;25.986;2024-03-08T13:48:14;101599.28;;;7.63;100.00
58245;BME280;44550;43.864;25.986;2024-03-08T13:52:14;101674.22;;;8.26;100.00
58245;BME280;44550;43.864;25.986;2024-03-08T13:56:15;101654.81;;;8.16;100.00
58245;BME280;44550;43.864;25.986;2024-03-08T14:00:17;101666.53;;;8.31;100.00
58245;BME280;44550;43.864;25.986;2024-03-08T14:04:19;101673.00;;;8.42;100.00
58245;BME280;44550;43.864;25.986;2024-03-08T14:08:25;101677.34;;;8.41;100.00
58245;BME280;44550;43.864;25.986;2024-03-08T14:12:25;101652.69;;;8.32;100.00
58245;BME280;44550;43.864;25.986;2024-03-08T14:16:30;101670.59;;;8.48;100.00
58245;BME280;44550;43.864;25.986;2024-03-08T14:20:30;101655.88;;;8.23;100.00
58245;BME280;44550;43.864;25.986;2024-03-08T14:24:30;101666.50;;;8.29;100.00
58245;BME280;44550;43.864;25.986;2024-03-08T14:28:32;101664.34;;;8.16;100.00
58245;BME280;44550;43.864;25.986;2024-03-08T14:32:34;101667.91;;;8.18;100.00
58245;BME280;44550;43.864;25.986;2024-03-08T14:36:35;101666.59;;;8.32;100.00
58245;BME280;44550;43.864;25.986;2024-03-08T14:40:36;101664.25;;;8.13;100.00
58245;BME280;44550;43.864;25.986;2024-03-08T14:44:38;101660.44;;;8.02;100.00
58245;BME280;44550;43.864;25.986;2024-03-08T14:48:40;101646.59;;;8.04;100.00
58245;BME280;44550;43.864;25.986;2024-03-08T14:52:40;101653.16;;;8.18;100.00
58245;BME280;44550;43.864;25.986;2024-03-08T14:56:40;101642.97;;;7.99;100.00
58245;BME280;44550;43.864;25.986;2024-03-08T15:00:40;101659.19;;;7.90;100.00
58245;BME280;44550;43.864;25.986;2024-03-08T15:04:46;101640.81;;;7.59;100.00
58245;BME280;44550;43.864;25.986;2024-03-08T15:08:53;101645.19;;;7.61;100.00
58245;BME280;44550;43.864;25.986;2024-03-08T15:12:55;101658.06;;;7.57;100.00
58245;BME280;44550;43.864;25.986;2024-03-08T15:16:56;101661.34;;;7.76;100.00
58245;BME280;44550;43.864;25.986;2024-03-08T15:20:57;101661.44;;;7.80;100.00
58245;BME280;44550;43.864;25.986;2024-03-08T15:24:57;101667.28;;;7.72;100.00
58245;BME280;44550;43.864;25.986;2024-03-08T15:28:58;101655.63;;;7.61;100.00
58245;BME280;44550;43.864;25.986;2024-03-08T15:32:59;101666.00;;;7.87;100.00
58245;BME280;44550;43.864;25.986;2024-03-08T15:37:03;101647.31;;;7.98;100.00
58245;BME280;44550;43.864;25.986;2024-03-08T15:41:03;101655.94;;;8.24;100.00
58245;BME280;44550;43.864;25.986;2024-03-08T15:45:08;101671.69;;;8.56;100.00
58245;BME280;44550;43.864;25.986;2024-03-08T15:49:09;101674.22;;;8.53;100.00
58245;BME280;44550;43.864;25.986;2024-03-08T15:53:11;101663.22;;;8.35;100.00
58245;BME280;44550;43.864;25.986;2024-03-08T15:57:12;101679.84;;;8.38;100.00
58245;BME280;44550;43.864;25.986;2024-03-08T16:01:13;101666.72;;;8.37;100.00
58245;BME280;44550;43.864;25.986;2024-03-08T16:05:16;101682.47;;;8.38;100.00
58245;BME280;44550;43.864;25.986;2024-03-08T16:09:19;101670.69;;;8.51;100.00
58245;BME280;44550;43.864;25.986;2024-03-08T16:13:25;101674.50;;;8.62;99.23
58245;BME280;44550;43.864;25.986;2024-03-08T16:17:25;101667.94;;;8.77;99.20
58245;BME280;44550;43.864;25.986;2024-03-08T16:21:25;101684.53;;;8.79;97.07
58245;BME280;44550;43.864;25.986;2024-03-08T16:25:26;101675.69;;;8.74;98.85
58245;BME280;44550;43.864;25.986;2024-03-08T16:29:26;101686.38;;;8.83;98.72
58245;BME280;44550;43.864;25.986;2024-03-08T16:33:25;101688.31;;;8.90;98.22
58245;BME280;44550;43.864;25.986;2024-03-08T16:37:25;101684.06;;;8.93;96.09
58245;BME280;44550;43.864;25.986;2024-03-08T16:41:28;101699.38;;;8.81;96.37
58245;BME280;44550;43.864;25.986;2024-03-08T16:45:29;101696.72;;;8.80;96.83
58245;BME280;44550;43.864;25.986;2024-03-08T16:49:29;101699.88;;;8.98;97.29
58245;BME280;44550;43.864;25.986;2024-03-08T16:53:29;101688.72;;;9.04;96.79
58245;BME280;44550;43.864;25.986;2024-03-08T16:57:33;101698.16;;;8.99;97.72
58245;BME280;44550;43.864;25.986;2024-03-08T17:01:35;101696.06;;;8.87;98.67
58245;BME280;44550;43.864;25.986;2024-03-08T17:05:38;101661.38;;;8.61;99.38
58245;BME280;44550;43.864;25.986;2024-03-08T17:09:42;101698.81;;;8.61;100.00
58245;BME280;44550;43.864;25.986;2024-03-08T17:13:44;101711.81;;;8.34;100.00
58245;BME280;44550;43.864;25.986;2024-03-08T17:17:50;101721.56;;;8.38;100.00
58245;BME280;44550;43.864;25.986;2024-03-08T17:21:51;101725.34;;;8.22;100.00
58245;BME280;44550;43.864;25.986;2024-03-08T17:25:51;101716.13;;;8.34;100.00
58245;BME280;44550;43.864;25.986;2024-03-08T17:29:54;101677.06;;;8.07;100.00
58245;BME280;44550;43.864;25.986;2024-03-08T17:33:53;101723.03;;;8.32;100.00
58245;BME280;44550;43.864;25.986;2024-03-08T17:37:54;101722.56;;;8.43;100.00
58245;BME280;44550;43.864;25.986;2024-03-08T17:41:55;101712.31;;;8.22;100.00
58245;BME280;44550;43.864;25.986;2024-03-08T17:45:57;101690.34;;;8.14;100.00
58245;BME280;44550;43.864;25.986;2024-03-08T17:49:57;101720.72;;;8.41;100.00
58245;BME280;44550;43.864;25.986;2024-03-08T17:53:58;101673.28;;;7.97;100.00
58245;BME280;44550;43.864;25.986;2024-03-08T17:57:58;101716.56;;;8.19;100.00
58245;BME280;44550;43.864;25.986;2024-03-08T18:02:00;101718.28;;;8.18;100.00
58245;BME280;44550;43.864;25.986;2024-03-08T18:06:01;101714.47;;;8.36;100.00
58245;BME280;44550;43.864;25.986;2024-03-08T18:10:03;101723.69;;;8.52;100.00
58245;BME280;44550;43.864;25.986;2024-03-08T18:14:05;101725.59;;;8.57;100.00
58245;BME280;44550;43.864;25.986;2024-03-08T18:18:08;101663.03;;;8.30;100.00
58245;BME280;44550;43.864;25.986;2024-03-08T18:22:08;101721.28;;;8.58;100.00
58245;BME280;44550;43.864;25.986;2024-03-08T18:26:09;101728.53;;;8.68;100.00
58245;BME280;44550;43.864;25.986;2024-03-08T18:30:11;101723.56;;;8.76;100.00
58245;BME280;44550;43.864;25.986;2024-03-08T18:34:14;101720.97;;;8.77;100.00
58245;BME280;44550;43.864;25.986;2024-03-08T18:38:14;101737.56;;;8.79;100.00
58245;BME280;44550;43.864;25.986;2024-03-08T18:42:18;101709.63;;;8.46;100.00
58245;BME280;44550;43.864;25.986;2024-03-08T18:46:17;101723.81;;;8.55;100.00
58245;BME280;44550;43.864;25.986;2024-03-08T18:50:20;101734.84;;;8.47;100.00
58245;BME280;44550;43.864;25.986;2024-03-08T18:54:20;101717.03;;;8.34;100.00
58245;BME280;44550;43.864;25.986;2024-03-08T18:58:23;101727.09;;;8.23;100.00
58245;BME280;44550;43.864;25.986;2024-03-08T19:02:41;101713.94;;;7.92;100.00
58245;BME280;44550;43.864;25.986;2024-03-08T19:06:45;101722.47;;;7.88;100.00
58245;BME280;44550;43.864;25.986;2024-03-08T19:10:48;101656.88;;;7.47;100.00
58245;BME280;44550;43.864;25.986;2024-03-08T19:14:51;101671.13;;;7.58;100.00
58245;BME280;44550;43.864;25.986;2024-03-08T19:18:52;101726.97;;;7.92;100.00
58245;BME280;44550;43.864;25.986;2024-03-08T19:23:11;101670.53;;;7.65;100.00
58245;BME280;44550;43.864;25.986;2024-03-08T19:27:11;101716.53;;;7.92;100.00
58245;BME280;44550;43.864;25.986;2024-03-08T19:31:12;101735.16;;;8.04;100.00
58245;BME280;44550;43.864;25.986;2024-03-08T19:35:12;101719.25;;;7.95;100.00
58245;BME280;44550;43.864;25.986;2024-03-08T19:39:19;101728.81;;;7.96;100.00
58245;BME280;44550;43.864;25.986;2024-03-08T19:43:20;101735.34;;;7.83;100.00
58245;BME280;44550;43.864;25.986;2024-03-08T19:47:25;101725.00;;;7.61;100.00
58245;BME280;44550;43.864;25.986;2024-03-08T19:51:28;101726.16;;;7.43;100.00
58245;BME280;44550;43.864;25.986;2024-03-08T19:55:30;101730.69;;;7.49;100.00
58245;BME280;44550;43.864;25.986;2024-03-08T19:59:31;101733.41;;;7.52;100.00
58245;BME280;44550;43.864;25.986;2024-03-08T20:03:41;101731.00;;;7.58;100.00
58245;BME280;44550;43.864;25.986;2024-03-08T20:07:42;101706.22;;;7.44;100.00
58245;BME280;44550;43.864;25.986;2024-03-08T20:11:44;101719.88;;;7.62;100.00
58245;BME280;44550;43.864;25.986;2024-03-08T20:15:44;101720.97;;;7.69;100.00
58245;BME280;44550;43.864;25.986;2024-03-08T20:19:51;101716.19;;;7.56;100.00
58245;BME280;44550;43.864;25.986;2024-03-08T20:23:55;101672.34;;;7.18;100.00
58245;BME280;44550;43.864;25.986;2024-03-08T20:27:58;101727.38;;;7.29;100.00
58245;BME280;44550;43.864;25.986;2024-03-08T20:31:58;101734.63;;;7.14;100.00
58245;BME280;44550;43.864;25.986;2024-03-08T20:36:04;101714.69;;;6.68;100.00
58245;BME280;44550;43.864;25.986;2024-03-08T20:40:07;101722.13;;;6.81;100.00
58245;BME280;44550;43.864;25.986;2024-03-08T20:44:10;101721.06;;;6.53;100.00
58245;BME280;44550;43.864;25.986;2024-03-08T20:48:13;101724.03;;;6.40;100.00
58245;BME280;44550;43.864;25.986;2024-03-08T20:52:13;101720.97;;;6.50;100.00